sensor_id;sensor_type;location;lat;lon;timestamp;P1;durP1;ratioP1;P2;durP2;ratioP2
27223;SDS011;14965;50.660;13.226;2022-12-18T00:01:26;34.27;;;15.07;;
27223;SDS011;14965;50.660;13.226;2022-12-18T00:03:55;32.03;;;14.10;;
27223;SDS011;14965;50.660;13.226;2022-12-18T00:06:23;43.40;;;17.75;;
27223;SDS011;14965;50.660;13.226;2022-12-18T00:08:52;49.78;;;19.05;;
27223;SDS011;14965;50.660;13.226;2022-12-18T00:11:22;30.10;;;13.43;;
27223;SDS011;14965;50.660;13.226;2022-12-18T00:13:50;36.38;;;14.68;;
27223;SDS011;14965;50.660;13.226;2022-12-18T00:16:19;39.85;;;15.82;;
27223;SDS011;14965;50.660;13.226;2022-12-18T00:18:48;38.15;;;14.90;;
27223;SDS011;14965;50.660;13.226;2022-12-18T00:21:16;45.50;;;14.75;;
27223;SDS011;14965;50.660;13.226;2022-12-18T00:23:45;44.65;;;16.95;;
27223;SDS011;14965;50.660;13.226;2022-12-18T00:26:15;48.90;;;17.23;;
27223;SDS011;14965;50.660;13.226;2022-12-18T00:28:44;42.97;;;16.88;;
27223;SDS011;14965;50.660;13.226;2022-12-18T00:31:12;39.10;;;15.55;;
27223;SDS011;14965;50.660;13.226;2022-12-18T00:33:41;37.65;;;15.55;;
27223;SDS011;14965;50.660;13.226;2022-12-18T00:36:09;33.13;;;13.07;;
27223;SDS011;14965;50.660;13.226;2022-12-18T00:38:38;36.50;;;12.98;;
27223;SDS011;14965;50.660;13.226;2022-12-18T00:41:05;25.52;;;10.77;;
27223;SDS011;14965;50.660;13.226;2022-12-18T00:43:34;26.80;;;10.93;;
27223;SDS011;14965;50.660;13.226;2022-12-18T00:46:01;35.28;;;14.18;;
27223;SDS011;14965;50.660;13.226;2022-12-18T00:48:27;36.30;;;14.25;;
27223;SDS011;14965;50.660;13.226;2022-12-18T00:50:53;46.17;;;15.38;;
27223;SDS011;14965;50.660;13.226;2022-12-18T00:53:19;41.67;;;14.65;;
27223;SDS011;14965;50.660;13.226;2022-12-18T00:55:46;43.78;;;14.75;;
27223;SDS011;14965;50.660;13.226;2022-12-18T00:58:12;30.70;;;11.27;;
27223;SDS011;14965;50.660;13.226;2022-12-18T01:00:42;25.95;;;10.73;;
27223;SDS011;14965;50.660;13.226;2022-12-18T01:03:09;32.33;;;12.57;;
27223;SDS011;14965;50.660;13.226;2022-12-18T01:05:38;36.95;;;13.50;;
27223;SDS011;14965;50.660;13.226;2022-12-18T01:08:05;35.28;;;14.35;;
27223;SDS011;14965;50.660;13.226;2022-12-18T01:10:31;38.72;;;15.18;;
27223;SDS011;14965;50.660;13.226;2022-12-18T01:12:57;32.45;;;13.75;;
27223;SDS011;14965;50.660;13.226;2022-12-18T01:15:23;36.88;;;14.02;;
27223;SDS011;14965;50.660;13.226;2022-12-18T01:17:52;30.42;;;12.48;;
27223;SDS011;14965;50.660;13.226;2022-12-18T01:20:18;39.00;;;14.02;;
27223;SDS011;14965;50.660;13.226;2022-12-18T01:22:45;38.83;;;15.50;;
27223;SDS011;14965;50.660;13.226;2022-12-18T01:25:11;36.08;;;13.90;;
27223;SDS011;14965;50.660;13.226;2022-12-18T01:27:36;35.85;;;13.45;;
27223;SDS011;14965;50.660;13.226;2022-12-18T01:30:03;31.08;;;13.25;;
27223;SDS011;14965;50.660;13.226;2022-12-18T01:32:30;30.02;;;12.57;;
27223;SDS011;14965;50.660;13.226;2022-12-18T01:34:58;29.95;;;12.60;;
27223;SDS011;14965;50.660;13.226;2022-12-18T01:37:24;30.60;;;12.60;;
27223;SDS011;14965;50.660;13.226;2022-12-18T01:39:51;26.80;;;11.70;;
27223;SDS011;14965;50.660;13.226;2022-12-18T01:42:18;32.38;;;13.75;;
27223;SDS011;14965;50.660;13.226;2022-12-18T01:47:48;33.00;;;13.65;;
27223;SDS011;14965;50.660;13.226;2022-12-18T01:50:20;55.55;;;18.50;;
27223;SDS011;14965;50.660;13.226;2022-12-18T01:52:51;27.80;;;12.02;;
27223;SDS011;14965;50.660;13.226;2022-12-18T01:55:22;23.70;;;10.13;;
27223;SDS011;14965;50.660;13.226;2022-12-18T01:57:53;20.30;;;9.32;;
27223;SDS011;14965;50.660;13.226;2022-12-18T02:00:23;29.27;;;12.00;;
27223;SDS011;14965;50.660;13.226;2022-12-18T02:02:53;37.08;;;14.20;;
27223;SDS011;14965;50.660;13.226;2022-12-18T02:05:25;33.92;;;13.30;;
27223;SDS011;14965;50.660;13.226;2022-12-18T02:08:07;33.33;;;11.52;;
27223;SDS011;14965;50.660;13.226;2022-12-18T02:10:44;33.13;;;11.02;;
27223;SDS011;14965;50.660;13.226;2022-12-18T02:13:19;29.25;;;10.95;;
27223;SDS011;14965;50.660;13.226;2022-12-18T02:15:54;21.17;;;8.98;;
27223;SDS011;14965;50.660;13.226;2022-12-18T02:18:32;31.88;;;12.70;;
27223;SDS011;14965;50.660;13.226;2022-12-18T02:21:04;25.33;;;9.95;;
27223;SDS011;14965;50.660;13.226;2022-12-18T02:23:48;28.77;;;10.90;;
27223;SDS011;14965;50.660;13.226;2022-12-18T02:26:24;32.65;;;12.38;;
27223;SDS011;14965;50.660;13.226;2022-12-18T02:28:59;30.00;;;11.65;;
27223;SDS011;14965;50.660;13.226;2022-12-18T02:31:31;24.35;;;9.65;;
27223;SDS011;14965;50.660;13.226;2022-12-18T02:34:05;24.23;;;9.02;;
27223;SDS011;14965;50.660;13.226;2022-12-18T02:36:34;31.00;;;10.43;;
27223;SDS011;14965;50.660;13.226;2022-12-18T02:39:06;30.75;;;11.40;;
27223;SDS011;14965;50.660;13.226;2022-12-18T02:41:38;22.77;;;8.43;;
27223;SDS011;14965;50.660;13.226;2022-12-18T02:44:07;22.52;;;8.82;;
27223;SDS011;14965;50.660;13.226;2022-12-18T02:46:36;20.42;;;7.90;;
27223;SDS011;14965;50.660;13.226;2022-12-18T02:49:08;21.55;;;7.65;;
27223;SDS011;14965;50.660;13.226;2022-12-18T02:51:50;18.75;;;8.05;;
27223;SDS011;14965;50.660;13.226;2022-12-18T02:54:23;19.80;;;7.90;;
27223;SDS011;14965;50.660;13.226;2022-12-18T02:57:05;17.85;;;7.72;;
27223;SDS011;14965;50.660;13.226;2022-12-18T02:59:44;18.88;;;7.38;;
27223;SDS011;14965;50.660;13.226;2022-12-18T03:02:21;15.70;;;6.72;;
27223;SDS011;14965;50.660;13.226;2022-12-18T03:04:55;16.00;;;6.30;;
27223;SDS011;14965;50.660;13.226;2022-12-18T03:07:33;13.35;;;5.60;;
27223;SDS011;14965;50.660;13.226;2022-12-18T03:10:07;13.90;;;6.30;;
27223;SDS011;14965;50.660;13.226;2022-12-18T03:12:41;10.80;;;5.28;;
27223;SDS011;14965;50.660;13.226;2022-12-18T03:15:14;13.75;;;5.65;;
27223;SDS011;14965;50.660;13.226;2022-12-18T03:17:48;14.30;;;6.15;;
27223;SDS011;14965;50.660;13.226;2022-12-18T03:20:22;14.88;;;6.30;;
27223;SDS011;14965;50.660;13.226;2022-12-18T03:22:57;12.32;;;5.43;;
27223;SDS011;14965;50.660;13.226;2022-12-18T03:25:32;16.45;;;6.28;;
27223;SDS011;14965;50.660;13.226;2022-12-18T03:28:05;13.52;;;6.10;;
27223;SDS011;14965;50.660;13.226;2022-12-18T03:30:36;15.25;;;6.20;;
27223;SDS011;14965;50.660;13.226;2022-12-18T03:33:07;19.80;;;7.90;;
27223;SDS011;14965;50.660;13.226;2022-12-18T03:35:41;20.48;;;8.52;;
27223;SDS011;14965;50.660;13.226;2022-12-18T03:38:08;18.23;;;7.50;;
27223;SDS011;14965;50.660;13.226;2022-12-18T03:40:38;13.80;;;6.00;;
27223;SDS011;14965;50.660;13.226;2022-12-18T03:43:18;14.00;;;7.53;;
27223;SDS011;14965;50.660;13.226;2022-12-18T03:45:58;14.35;;;6.10;;
27223;SDS011;14965;50.660;13.226;2022-12-18T03:48:32;14.57;;;6.85;;
27223;SDS011;14965;50.660;13.226;2022-12-18T03:51:07;14.93;;;7.57;;
27223;SDS011;14965;50.660;13.226;2022-12-18T03:53:44;14.45;;;6.63;;
27223;SDS011;14965;50.660;13.226;2022-12-18T03:56:19;11.65;;;5.80;;
27223;SDS011;14965;50.660;13.226;2022-12-18T03:58:50;13.02;;;5.60;;
27223;SDS011;14965;50.660;13.226;2022-12-18T04:01:22;11.82;;;5.82;;
27223;SDS011;14965;50.660;13.226;2022-12-18T04:03:55;11.18;;;5.57;;
27223;SDS011;14965;50.660;13.226;2022-12-18T04:06:25;27.70;;;9.88;;
27223;SDS011;14965;50.660;13.226;2022-12-18T04:08:52;31.48;;;8.88;;
27223;SDS011;14965;50.660;13.226;2022-12-18T04:11:19;23.15;;;7.07;;
27223;SDS011;14965;50.660;13.226;2022-12-18T04:13:45;16.05;;;5.70;;
27223;SDS011;14965;50.660;13.226;2022-12-18T04:16:12;13.10;;;5.28;;
27223;SDS011;14965;50.660;13.226;2022-12-18T04:18:38;12.10;;;5.07;;
27223;SDS011;14965;50.660;13.226;2022-12-18T04:21:04;10.73;;;4.75;;
27223;SDS011;14965;50.660;13.226;2022-12-18T04:23:30;10.32;;;4.78;;
27223;SDS011;14965;50.660;13.226;2022-12-18T04:25:56;12.20;;;4.80;;
27223;SDS011;14965;50.660;13.226;2022-12-18T04:28:22;11.55;;;4.53;;
27223;SDS011;14965;50.660;13.226;2022-12-18T04:30:48;23.58;;;8.32;;
27223;SDS011;14965;50.660;13.226;2022-12-18T04:33:16;19.90;;;7.50;;
27223;SDS011;14965;50.660;13.226;2022-12-18T04:35:42;12.88;;;6.55;;
27223;SDS011;14965;50.660;13.226;2022-12-18T04:38:08;17.58;;;7.47;;
27223;SDS011;14965;50.660;13.226;2022-12-18T04:40:35;13.45;;;6.05;;
27223;SDS011;14965;50.660;13.226;2022-12-18T04:43:02;13.55;;;5.82;;
27223;SDS011;14965;50.660;13.226;2022-12-18T04:45:28;17.20;;;6.60;;
27223;SDS011;14965;50.660;13.226;2022-12-18T04:47:56;15.63;;;5.53;;
27223;SDS011;14965;50.660;13.226;2022-12-18T04:50:23;12.40;;;4.80;;
27223;SDS011;14965;50.660;13.226;2022-12-18T04:52:50;9.85;;;5.03;;
27223;SDS011;14965;50.660;13.226;2022-12-18T04:55:16;12.85;;;5.35;;
27223;SDS011;14965;50.660;13.226;2022-12-18T04:57:42;7.82;;;3.95;;
27223;SDS011;14965;50.660;13.226;2022-12-18T05:00:08;8.35;;;3.53;;
27223;SDS011;14965;50.660;13.226;2022-12-18T05:02:35;8.98;;;4.10;;
27223;SDS011;14965;50.660;13.226;2022-12-18T05:05:01;14.50;;;4.50;;
27223;SDS011;14965;50.660;13.226;2022-12-18T05:07:29;7.45;;;4.03;;
27223;SDS011;14965;50.660;13.226;2022-12-18T05:09:55;10.35;;;4.85;;
27223;SDS011;14965;50.660;13.226;2022-12-18T05:12:21;11.07;;;4.55;;
27223;SDS011;14965;50.660;13.226;2022-12-18T05:14:47;10.45;;;5.15;;
27223;SDS011;14965;50.660;13.226;2022-12-18T05:17:13;20.23;;;6.65;;
27223;SDS011;14965;50.660;13.226;2022-12-18T05:19:39;26.83;;;7.97;;
27223;SDS011;14965;50.660;13.226;2022-12-18T05:22:05;18.73;;;7.70;;
27223;SDS011;14965;50.660;13.226;2022-12-18T05:24:32;15.75;;;6.88;;
27223;SDS011;14965;50.660;13.226;2022-12-18T05:26:58;19.77;;;7.20;;
27223;SDS011;14965;50.660;13.226;2022-12-18T05:29:24;12.32;;;5.90;;
27223;SDS011;14965;50.660;13.226;2022-12-18T05:31:50;20.60;;;6.70;;
27223;SDS011;14965;50.660;13.226;2022-12-18T05:34:16;17.80;;;7.00;;
27223;SDS011;14965;50.660;13.226;2022-12-18T05:36:42;12.30;;;5.43;;
27223;SDS011;14965;50.660;13.226;2022-12-18T05:39:08;12.70;;;5.70;;
27223;SDS011;14965;50.660;13.226;2022-12-18T05:41:35;14.88;;;5.50;;
27223;SDS011;14965;50.660;13.226;2022-12-18T05:44:01;22.10;;;8.73;;
27223;SDS011;14965;50.660;13.226;2022-12-18T05:46:27;15.85;;;6.30;;
27223;SDS011;14965;50.660;13.226;2022-12-18T05:48:53;16.13;;;6.47;;
27223;SDS011;14965;50.660;13.226;2022-12-18T05:51:20;21.13;;;6.97;;
27223;SDS011;14965;50.660;13.226;2022-12-18T05:53:47;19.58;;;8.35;;
27223;SDS011;14965;50.660;13.226;2022-12-18T05:56:14;16.70;;;6.82;;
27223;SDS011;14965;50.660;13.226;2022-12-18T05:58:44;16.35;;;6.78;;
27223;SDS011;14965;50.660;13.226;2022-12-18T06:01:11;16.33;;;7.05;;
27223;SDS011;14965;50.660;13.226;2022-12-18T06:03:40;13.05;;;6.47;;
27223;SDS011;14965;50.660;13.226;2022-12-18T06:06:12;14.77;;;7.07;;
27223;SDS011;14965;50.660;13.226;2022-12-18T06:08:40;16.10;;;7.55;;
27223;SDS011;14965;50.660;13.226;2022-12-18T06:11:05;17.80;;;7.50;;
27223;SDS011;14965;50.660;13.226;2022-12-18T06:13:31;15.82;;;7.20;;
27223;SDS011;14965;50.660;13.226;2022-12-18T06:15:59;18.15;;;7.97;;
27223;SDS011;14965;50.660;13.226;2022-12-18T06:18:28;15.65;;;7.57;;
27223;SDS011;14965;50.660;13.226;2022-12-18T06:20:54;21.08;;;8.40;;
27223;SDS011;14965;50.660;13.226;2022-12-18T06:23:21;20.05;;;8.00;;
27223;SDS011;14965;50.660;13.226;2022-12-18T06:25:47;19.45;;;8.82;;
27223;SDS011;14965;50.660;13.226;2022-12-18T06:28:13;20.35;;;9.45;;
27223;SDS011;14965;50.660;13.226;2022-12-18T06:30:39;20.42;;;9.02;;
27223;SDS011;14965;50.660;13.226;2022-12-18T06:33:06;21.98;;;9.70;;
27223;SDS011;14965;50.660;13.226;2022-12-18T06:35:32;23.27;;;10.25;;
27223;SDS011;14965;50.660;13.226;2022-12-18T06:37:58;25.17;;;11.43;;
27223;SDS011;14965;50.660;13.226;2022-12-18T06:40:26;29.05;;;11.82;;
27223;SDS011;14965;50.660;13.226;2022-12-18T06:42:51;26.75;;;11.82;;
27223;SDS011;14965;50.660;13.226;2022-12-18T06:45:17;24.23;;;10.98;;
27223;SDS011;14965;50.660;13.226;2022-12-18T06:47:43;27.48;;;11.35;;
27223;SDS011;14965;50.660;13.226;2022-12-18T06:50:11;28.60;;;12.60;;
27223;SDS011;14965;50.660;13.226;2022-12-18T06:52:38;28.23;;;11.35;;
27223;SDS011;14965;50.660;13.226;2022-12-18T06:55:05;28.98;;;11.90;;
27223;SDS011;14965;50.660;13.226;2022-12-18T06:57:32;26.58;;;12.32;;
27223;SDS011;14965;50.660;13.226;2022-12-18T06:59:58;23.10;;;10.48;;
27223;SDS011;14965;50.660;13.226;2022-12-18T07:02:23;27.17;;;12.70;;
27223;SDS011;14965;50.660;13.226;2022-12-18T07:04:49;30.13;;;12.93;;
27223;SDS011;14965;50.660;13.226;2022-12-18T07:07:17;25.98;;;12.75;;
27223;SDS011;14965;50.660;13.226;2022-12-18T07:09:43;28.58;;;13.63;;
27223;SDS011;14965;50.660;13.226;2022-12-18T07:12:09;33.55;;;15.20;;
27223;SDS011;14965;50.660;13.226;2022-12-18T07:14:35;31.27;;;14.07;;
27223;SDS011;14965;50.660;13.226;2022-12-18T07:17:01;32.92;;;13.05;;
27223;SDS011;14965;50.660;13.226;2022-12-18T07:19:28;25.95;;;12.98;;
27223;SDS011;14965;50.660;13.226;2022-12-18T07:21:54;30.02;;;13.82;;
27223;SDS011;14965;50.660;13.226;2022-12-18T07:24:22;30.50;;;15.23;;
27223;SDS011;14965;50.660;13.226;2022-12-18T07:26:48;31.02;;;13.88;;
27223;SDS011;14965;50.660;13.226;2022-12-18T07:29:13;33.90;;;14.32;;
27223;SDS011;14965;50.660;13.226;2022-12-18T07:31:41;34.78;;;14.38;;
27223;SDS011;14965;50.660;13.226;2022-12-18T07:34:09;38.30;;;16.85;;
27223;SDS011;14965;50.660;13.226;2022-12-18T07:36:36;30.08;;;14.18;;
27223;SDS011;14965;50.660;13.226;2022-12-18T07:39:01;28.65;;;12.68;;
27223;SDS011;14965;50.660;13.226;2022-12-18T07:41:29;28.50;;;11.88;;
27223;SDS011;14965;50.660;13.226;2022-12-18T07:43:55;29.73;;;11.68;;
27223;SDS011;14965;50.660;13.226;2022-12-18T07:46:21;24.30;;;10.90;;
27223;SDS011;14965;50.660;13.226;2022-12-18T07:48:47;23.75;;;10.52;;
27223;SDS011;14965;50.660;13.226;2022-12-18T07:51:13;23.27;;;10.43;;
27223;SDS011;14965;50.660;13.226;2022-12-18T07:53:39;22.67;;;9.70;;
27223;SDS011;14965;50.660;13.226;2022-12-18T07:56:07;18.52;;;9.00;;
27223;SDS011;14965;50.660;13.226;2022-12-18T07:58:37;24.25;;;10.52;;
27223;SDS011;14965;50.660;13.226;2022-12-18T08:01:03;25.20;;;10.35;;
27223;SDS011;14965;50.660;13.226;2022-12-18T08:03:31;19.85;;;9.18;;
27223;SDS011;14965;50.660;13.226;2022-12-18T08:05:58;20.92;;;9.50;;
27223;SDS011;14965;50.660;13.226;2022-12-18T08:08:25;26.60;;;11.20;;
27223;SDS011;14965;50.660;13.226;2022-12-18T08:10:51;21.92;;;10.25;;
27223;SDS011;14965;50.660;13.226;2022-12-18T08:13:17;22.42;;;9.38;;
27223;SDS011;14965;50.660;13.226;2022-12-18T08:15:44;23.70;;;9.82;;
27223;SDS011;14965;50.660;13.226;2022-12-18T08:18:10;24.10;;;11.02;;
27223;SDS011;14965;50.660;13.226;2022-12-18T08:20:36;21.25;;;9.90;;
27223;SDS011;14965;50.660;13.226;2022-12-18T08:23:02;26.08;;;10.10;;
27223;SDS011;14965;50.660;13.226;2022-12-18T08:25:28;20.95;;;9.93;;
27223;SDS011;14965;50.660;13.226;2022-12-18T08:27:54;25.70;;;9.63;;
27223;SDS011;14965;50.660;13.226;2022-12-18T08:30:20;19.52;;;9.40;;
27223;SDS011;14965;50.660;13.226;2022-12-18T08:32:49;22.02;;;9.68;;
27223;SDS011;14965;50.660;13.226;2022-12-18T08:35:16;27.42;;;10.70;;
27223;SDS011;14965;50.660;13.226;2022-12-18T08:37:42;19.63;;;8.55;;
27223;SDS011;14965;50.660;13.226;2022-12-18T08:40:08;22.75;;;8.90;;
27223;SDS011;14965;50.660;13.226;2022-12-18T08:42:35;21.95;;;9.57;;
27223;SDS011;14965;50.660;13.226;2022-12-18T08:45:01;19.67;;;9.25;;
27223;SDS011;14965;50.660;13.226;2022-12-18T08:47:28;19.27;;;8.20;;
27223;SDS011;14965;50.660;13.226;2022-12-18T08:49:56;22.65;;;10.23;;
27223;SDS011;14965;50.660;13.226;2022-12-18T08:52:22;20.55;;;10.93;;
27223;SDS011;14965;50.660;13.226;2022-12-18T08:54:48;28.38;;;13.82;;
27223;SDS011;14965;50.660;13.226;2022-12-18T08:57:14;22.88;;;10.43;;
27223;SDS011;14965;50.660;13.226;2022-12-18T08:59:39;24.83;;;10.38;;
27223;SDS011;14965;50.660;13.226;2022-12-18T09:02:05;22.33;;;10.43;;
27223;SDS011;14965;50.660;13.226;2022-12-18T09:04:35;20.60;;;9.68;;
27223;SDS011;14965;50.660;13.226;2022-12-18T09:07:02;22.33;;;10.02;;
27223;SDS011;14965;50.660;13.226;2022-12-18T09:09:28;23.33;;;9.30;;
27223;SDS011;14965;50.660;13.226;2022-12-18T09:11:54;23.75;;;9.20;;
27223;SDS011;14965;50.660;13.226;2022-12-18T09:14:20;21.38;;;9.80;;
27223;SDS011;14965;50.660;13.226;2022-12-18T09:16:46;23.08;;;10.40;;
27223;SDS011;14965;50.660;13.226;2022-12-18T09:19:12;18.40;;;9.35;;
27223;SDS011;14965;50.660;13.226;2022-12-18T09:21:38;21.27;;;10.05;;
27223;SDS011;14965;50.660;13.226;2022-12-18T09:24:06;21.75;;;10.30;;
27223;SDS011;14965;50.660;13.226;2022-12-18T09:26:37;21.27;;;9.55;;
27223;SDS011;14965;50.660;13.226;2022-12-18T09:29:03;24.73;;;10.15;;
27223;SDS011;14965;50.660;13.226;2022-12-18T09:31:29;22.75;;;10.18;;
27223;SDS011;14965;50.660;13.226;2022-12-18T09:33:55;34.85;;;13.63;;
27223;SDS011;14965;50.660;13.226;2022-12-18T09:36:21;44.67;;;17.77;;
27223;SDS011;14965;50.660;13.226;2022-12-18T09:38:47;32.58;;;14.85;;
27223;SDS011;14965;50.660;13.226;2022-12-18T09:41:17;39.92;;;14.68;;
27223;SDS011;14965;50.660;13.226;2022-12-18T09:44:11;32.00;;;12.90;;
27223;SDS011;14965;50.660;13.226;2022-12-18T09:46:54;24.33;;;12.13;;
27223;SDS011;14965;50.660;13.226;2022-12-18T09:49:50;20.05;;;9.20;;
27223;SDS011;14965;50.660;13.226;2022-12-18T09:52:21;20.00;;;9.35;;
27223;SDS011;14965;50.660;13.226;2022-12-18T09:54:55;18.00;;;8.82;;
27223;SDS011;14965;50.660;13.226;2022-12-18T09:57:29;17.45;;;8.43;;
27223;SDS011;14965;50.660;13.226;2022-12-18T10:00:03;17.77;;;8.27;;
27223;SDS011;14965;50.660;13.226;2022-12-18T10:02:40;17.38;;;8.15;;
27223;SDS011;14965;50.660;13.226;2022-12-18T10:05:07;20.55;;;8.80;;
27223;SDS011;14965;50.660;13.226;2022-12-18T10:07:43;20.13;;;8.98;;
27223;SDS011;14965;50.660;13.226;2022-12-18T10:10:27;16.52;;;8.05;;
27223;SDS011;14965;50.660;13.226;2022-12-18T10:13:07;18.67;;;8.13;;
27223;SDS011;14965;50.660;13.226;2022-12-18T10:15:47;16.20;;;8.18;;
27223;SDS011;14965;50.660;13.226;2022-12-18T10:18:50;18.45;;;8.23;;
27223;SDS011;14965;50.660;13.226;2022-12-18T10:21:31;16.98;;;8.27;;
27223;SDS011;14965;50.660;13.226;2022-12-18T10:24:11;19.52;;;8.63;;
27223;SDS011;14965;50.660;13.226;2022-12-18T10:26:49;19.65;;;8.32;;
27223;SDS011;14965;50.660;13.226;2022-12-18T10:29:18;17.30;;;8.15;;
27223;SDS011;14965;50.660;13.226;2022-12-18T10:31:45;18.15;;;8.02;;
27223;SDS011;14965;50.660;13.226;2022-12-18T10:34:11;16.20;;;7.43;;
27223;SDS011;14965;50.660;13.226;2022-12-18T10:39:16;17.17;;;8.07;;
27223;SDS011;14965;50.660;13.226;2022-12-18T10:41:45;18.60;;;8.30;;
27223;SDS011;14965;50.660;13.226;2022-12-18T10:44:12;19.92;;;7.90;;
27223;SDS011;14965;50.660;13.226;2022-12-18T10:46:44;20.35;;;8.57;;
27223;SDS011;14965;50.660;13.226;2022-12-18T10:52:04;20.92;;;8.63;;
27223;SDS011;14965;50.660;13.226;2022-12-18T10:54:39;18.23;;;8.60;;
27223;SDS011;14965;50.660;13.226;2022-12-18T10:57:15;19.40;;;8.50;;
27223;SDS011;14965;50.660;13.226;2022-12-18T11:02:28;19.38;;;8.40;;
27223;SDS011;14965;50.660;13.226;2022-12-18T11:05:01;23.27;;;9.55;;
27223;SDS011;14965;50.660;13.226;2022-12-18T11:07:48;23.23;;;8.98;;
27223;SDS011;14965;50.660;13.226;2022-12-18T11:10:16;19.73;;;8.73;;
27223;SDS011;14965;50.660;13.226;2022-12-18T11:12:44;20.70;;;9.00;;
27223;SDS011;14965;50.660;13.226;2022-12-18T11:15:13;20.40;;;9.73;;
27223;SDS011;14965;50.660;13.226;2022-12-18T11:17:45;21.58;;;9.55;;
27223;SDS011;14965;50.660;13.226;2022-12-18T11:20:19;19.75;;;9.20;;
27223;SDS011;14965;50.660;13.226;2022-12-18T11:22:55;23.55;;;10.45;;
27223;SDS011;14965;50.660;13.226;2022-12-18T11:25:24;26.13;;;10.20;;
27223;SDS011;14965;50.660;13.226;2022-12-18T11:27:52;24.70;;;11.38;;
27223;SDS011;14965;50.660;13.226;2022-12-18T11:30:22;28.08;;;12.20;;
27223;SDS011;14965;50.660;13.226;2022-12-18T11:32:53;20.60;;;9.82;;
27223;SDS011;14965;50.660;13.226;2022-12-18T11:35:35;20.90;;;9.15;;
27223;SDS011;14965;50.660;13.226;2022-12-18T11:38:12;21.73;;;9.98;;
27223;SDS011;14965;50.660;13.226;2022-12-18T11:40:48;21.30;;;10.00;;
27223;SDS011;14965;50.660;13.226;2022-12-18T11:43:26;23.45;;;11.32;;
27223;SDS011;14965;50.660;13.226;2022-12-18T11:45:59;20.00;;;9.93;;
27223;SDS011;14965;50.660;13.226;2022-12-18T11:48:32;26.10;;;10.93;;
27223;SDS011;14965;50.660;13.226;2022-12-18T11:51:09;23.27;;;10.13;;
27223;SDS011;14965;50.660;13.226;2022-12-18T11:53:45;22.33;;;9.77;;
27223;SDS011;14965;50.660;13.226;2022-12-18T11:56:16;27.50;;;10.05;;
27223;SDS011;14965;50.660;13.226;2022-12-18T11:58:57;23.15;;;10.30;;
27223;SDS011;14965;50.660;13.226;2022-12-18T12:04:19;22.60;;;9.52;;
27223;SDS011;14965;50.660;13.226;2022-12-18T12:07:24;30.70;;;11.13;;
27223;SDS011;14965;50.660;13.226;2022-12-18T12:10:07;23.92;;;10.48;;
27223;SDS011;14965;50.660;13.226;2022-12-18T12:12:52;22.98;;;10.52;;
27223;SDS011;14965;50.660;13.226;2022-12-18T12:15:33;23.05;;;10.52;;
27223;SDS011;14965;50.660;13.226;2022-12-18T12:18:13;22.38;;;10.23;;
27223;SDS011;14965;50.660;13.226;2022-12-18T12:21:01;26.17;;;10.35;;
27223;SDS011;14965;50.660;13.226;2022-12-18T12:23:38;23.83;;;10.32;;
27223;SDS011;14965;50.660;13.226;2022-12-18T12:26:18;22.88;;;10.48;;
27223;SDS011;14965;50.660;13.226;2022-12-18T12:29:00;23.27;;;10.07;;
27223;SDS011;14965;50.660;13.226;2022-12-18T12:31:42;21.02;;;8.85;;
27223;SDS011;14965;50.660;13.226;2022-12-18T12:34:31;24.13;;;10.52;;
27223;SDS011;14965;50.660;13.226;2022-12-18T12:37:15;25.90;;;10.60;;
27223;SDS011;14965;50.660;13.226;2022-12-18T12:39:57;17.52;;;8.85;;
27223;SDS011;14965;50.660;13.226;2022-12-18T12:42:28;19.88;;;9.25;;
27223;SDS011;14965;50.660;13.226;2022-12-18T12:45:03;24.25;;;10.38;;
27223;SDS011;14965;50.660;13.226;2022-12-18T12:47:40;22.15;;;9.35;;
27223;SDS011;14965;50.660;13.226;2022-12-18T12:50:13;21.50;;;8.60;;
27223;SDS011;14965;50.660;13.226;2022-12-18T12:52:45;18.85;;;7.88;;
27223;SDS011;14965;50.660;13.226;2022-12-18T12:55:17;21.15;;;8.98;;
27223;SDS011;14965;50.660;13.226;2022-12-18T12:57:48;21.67;;;8.85;;
27223;SDS011;14965;50.660;13.226;2022-12-18T13:00:25;27.50;;;11.02;;
27223;SDS011;14965;50.660;13.226;2022-12-18T13:03:03;24.42;;;9.75;;
27223;SDS011;14965;50.660;13.226;2022-12-18T13:05:40;24.33;;;9.93;;
27223;SDS011;14965;50.660;13.226;2022-12-18T13:08:24;21.98;;;8.82;;
27223;SDS011;14965;50.660;13.226;2022-12-18T13:10:52;36.83;;;13.25;;
27223;SDS011;14965;50.660;13.226;2022-12-18T13:13:19;22.35;;;10.00;;
27223;SDS011;14965;50.660;13.226;2022-12-18T13:15:46;17.35;;;7.95;;
27223;SDS011;14965;50.660;13.226;2022-12-18T13:18:18;22.70;;;9.80;;
27223;SDS011;14965;50.660;13.226;2022-12-18T13:20:46;18.70;;;8.45;;
27223;SDS011;14965;50.660;13.226;2022-12-18T13:23:29;17.02;;;7.90;;
27223;SDS011;14965;50.660;13.226;2022-12-18T13:25:59;21.27;;;8.82;;
27223;SDS011;14965;50.660;13.226;2022-12-18T13:29:02;17.83;;;8.25;;
27223;SDS011;14965;50.660;13.226;2022-12-18T13:34:43;21.02;;;8.48;;
27223;SDS011;14965;50.660;13.226;2022-12-18T13:43:22;24.30;;;9.80;;
27223;SDS011;14965;50.660;13.226;2022-12-18T13:46:05;19.90;;;8.52;;
27223;SDS011;14965;50.660;13.226;2022-12-18T13:48:49;17.63;;;7.97;;
27223;SDS011;14965;50.660;13.226;2022-12-18T13:51:20;20.55;;;9.48;;
27223;SDS011;14965;50.660;13.226;2022-12-18T13:53:48;23.65;;;9.48;;
27223;SDS011;14965;50.660;13.226;2022-12-18T13:58:50;23.38;;;10.30;;
27223;SDS011;14965;50.660;13.226;2022-12-18T14:01:42;24.20;;;10.23;;
27223;SDS011;14965;50.660;13.226;2022-12-18T14:04:11;22.45;;;8.85;;
27223;SDS011;14965;50.660;13.226;2022-12-18T14:06:47;28.73;;;10.57;;
27223;SDS011;14965;50.660;13.226;2022-12-18T14:09:15;20.42;;;8.52;;
27223;SDS011;14965;50.660;13.226;2022-12-18T14:11:46;20.25;;;8.77;;
27223;SDS011;14965;50.660;13.226;2022-12-18T14:14:15;30.77;;;12.10;;
27223;SDS011;14965;50.660;13.226;2022-12-18T14:16:45;23.35;;;9.93;;
27223;SDS011;14965;50.660;13.226;2022-12-18T14:19:13;29.73;;;11.97;;
27223;SDS011;14965;50.660;13.226;2022-12-18T14:21:45;37.28;;;15.20;;
27223;SDS011;14965;50.660;13.226;2022-12-18T14:24:13;28.30;;;11.38;;
27223;SDS011;14965;50.660;13.226;2022-12-18T14:26:43;28.85;;;11.70;;
27223;SDS011;14965;50.660;13.226;2022-12-18T14:32:09;29.90;;;12.85;;
27223;SDS011;14965;50.660;13.226;2022-12-18T14:34:37;27.88;;;11.88;;
27223;SDS011;14965;50.660;13.226;2022-12-18T14:37:03;32.28;;;14.30;;
27223;SDS011;14965;50.660;13.226;2022-12-18T14:39:29;34.22;;;14.63;;
27223;SDS011;14965;50.660;13.226;2022-12-18T14:41:55;32.72;;;13.48;;
27223;SDS011;14965;50.660;13.226;2022-12-18T14:44:21;34.65;;;13.93;;
27223;SDS011;14965;50.660;13.226;2022-12-18T14:46:47;41.35;;;17.15;;
27223;SDS011;14965;50.660;13.226;2022-12-18T14:49:19;40.47;;;16.08;;
27223;SDS011;14965;50.660;13.226;2022-12-18T14:51:52;44.08;;;16.98;;
27223;SDS011;14965;50.660;13.226;2022-12-18T14:54:20;46.35;;;18.33;;
27223;SDS011;14965;50.660;13.226;2022-12-18T14:56:49;38.22;;;14.88;;
27223;SDS011;14965;50.660;13.226;2022-12-18T14:59:23;39.80;;;16.05;;
27223;SDS011;14965;50.660;13.226;2022-12-18T15:01:55;36.83;;;15.30;;
27223;SDS011;14965;50.660;13.226;2022-12-18T15:04:28;37.33;;;15.30;;